Time;durP1;ratioP1;P1;durP2;ratioP2;P2;SDS_P1;SDS_P2;PMS_P1;PMS_P2;Temp;Humidity;BMP_temperature;BMP_pressure;BME280_temperature;BME280_humidity;BME280_pressure;Samples;Min_cycle;Max_cycle;Signal;HPM_P1;HPM_P2
2022/11/27 00:00:38;;;;;;;10.45;6.10;;;25.00;99.90;;;;;;1777138;79;21182;-84
2022/11/27 00:03:09;;;;;;;10.05;8.08;;;25.00;99.90;;;;;;1769352;79;21140;-83
2022/11/27 00:05:57;;;;;;;9.63;5.47;;;25.10;99.90;;;;;;1780101;79;21185;-82
2022/11/27 00:08:29;;;;;;;7.50;4.37;;;25.10;99.90;;;;;;1771071;80;21816;-82
2022/11/27 00:11:08;;;;;;;8.43;5.35;;;25.10;99.90;;;;;;1765917;79;21241;-84
2022/11/27 00:13:39;;;;;;;6.55;3.95;;;25.10;99.90;;;;;;1775593;79;21151;-83
2022/11/27 00:16:10;;;;;;;7.28;3.70;;;25.10;99.90;;;;;;1799451;79;21075;-83
2022/11/27 00:18:42;;;;;;;6.80;3.02;;;25.10;99.90;;;;;;1755176;80;21713;-83
2022/11/27 00:21:16;;;;;;;7.72;2.90;;;25.00;99.90;;;;;;1772031;79;21524;-83
2022/11/27 00:23:46;;;;;;;6.03;3.37;;;25.00;99.90;;;;;;1785341;78;21788;-83
2022/11/27 00:26:20;;;;;;;6.65;3.00;;;25.00;99.90;;;;;;1772806;80;21161;-83
2022/11/27 00:28:59;;;;;;;7.08;3.42;;;25.00;99.90;;;;;;1762230;80;21257;-83
2022/11/27 00:31:33;;;;;;;7.08;2.90;;;25.10;99.90;;;;;;1756951;79;21167;-83
2022/11/27 00:34:16;;;;;;;5.30;2.15;;;25.10;99.90;;;;;;1775792;78;21184;-83
2022/11/27 00:36:47;;;;;;;5.42;2.12;;;25.10;99.90;;;;;;1860276;76;21217;-83
2022/11/27 00:39:19;;;;;;;3.50;2.12;;;25.10;99.90;;;;;;1854495;77;21119;-84
2022/11/27 00:41:50;;;;;;;3.92;2.15;;;25.10;99.90;;;;;;1860138;75;21122;-83
2022/11/27 00:44:20;;;;;;;7.85;2.60;;;25.10;99.90;;;;;;1879683;75;21155;-85
2022/11/27 00:46:51;;;;;;;4.37;2.30;;;25.20;99.90;;;;;;1859667;75;21111;-83
2022/11/27 00:49:24;;;;;;;4.65;2.45;;;25.20;99.90;;;;;;1830966;76;21572;-84
2022/11/27 00:51:57;;;;;;;8.73;4.60;;;25.30;99.90;;;;;;1845092;75;21204;-83
2022/11/27 00:54:28;;;;;;;5.45;3.15;;;25.30;99.90;;;;;;1848342;76;21080;-83
2022/11/27 00:56:59;;;;;;;7.30;3.80;;;25.30;99.90;;;;;;1847340;76;22285;-84
2022/11/27 00:59:31;;;;;;;7.40;3.58;;;25.30;99.90;;;;;;1870373;75;21195;-83
2022/11/27 01:02:02;;;;;;;7.12;2.77;;;25.40;99.90;;;;;;1851483;76;21142;-84
2022/11/27 01:04:33;;;;;;;5.40;2.60;;;25.40;99.90;;;;;;1854106;76;21519;-84
2022/11/27 01:07:04;;;;;;;4.90;2.98;;;25.40;99.90;;;;;;1861301;76;21103;-83
2022/11/27 01:09:35;;;;;;;7.40;3.75;;;25.50;99.90;;;;;;1867570;75;21139;-84
2022/11/27 01:12:07;;;;;;;8.58;3.27;;;25.50;99.90;;;;;;1840478;77;21186;-83
2022/11/27 01:14:38;;;;;;;5.97;3.17;;;25.60;99.90;;;;;;1851221;75;21267;-82
2022/11/27 01:17:10;;;;;;;5.42;3.10;;;25.60;99.90;;;;;;1798408;78;21155;-82
2022/11/27 01:19:43;;;;;;;4.25;2.67;;;25.60;99.90;;;;;;1872026;76;21122;-82
2022/11/27 01:22:14;;;;;;;6.35;4.10;;;25.60;99.90;;;;;;1856330;76;21150;-83
2022/11/27 01:24:45;;;;;;;8.88;4.45;;;25.60;99.90;;;;;;1862210;75;21609;-82
2022/11/27 01:27:16;;;;;;;7.33;3.98;;;25.70;99.90;;;;;;1858587;75;21188;-83
2022/11/27 01:29:47;;;;;;;9.33;4.95;;;25.70;99.90;;;;;;1862695;75;21119;-83
2022/11/27 01:32:21;;;;;;;11.28;7.45;;;25.70;99.90;;;;;;1857308;75;21769;-83
2022/11/27 01:34:52;;;;;;;8.45;3.35;;;25.80;99.90;;;;;;1825041;78;21105;-82
2022/11/27 01:37:23;;;;;;;6.33;4.12;;;25.80;99.90;;;;;;1832020;77;21179;-82
2022/11/27 01:40:05;;;;;;;5.42;3.42;;;25.80;99.90;;;;;;1783745;79;21180;-83
2022/11/27 01:42:36;;;;;;;10.30;6.15;;;25.80;99.90;;;;;;1834049;75;21210;-83
2022/11/27 01:45:10;;;;;;;5.58;3.45;;;25.80;99.90;;;;;;1785217;79;21225;-84
2022/11/27 01:47:46;;;;;;;6.97;4.00;;;25.90;99.90;;;;;;1856224;76;21199;-82
2022/11/27 01:50:23;;;;;;;5.87;4.28;;;25.90;99.90;;;;;;1860656;76;21288;-82
2022/11/27 01:52:56;;;;;;;7.85;4.37;;;25.90;99.90;;;;;;1850989;77;21107;-82
2022/11/27 01:55:29;;;;;;;6.75;4.12;;;25.90;99.90;;;;;;1852505;77;21071;-82
2022/11/27 01:58:12;;;;;;;6.78;4.25;;;26.00;99.90;;;;;;1849744;76;21079;-82
2022/11/27 02:00:43;;;;;;;5.67;4.40;;;26.00;99.90;;;;;;1851355;75;21157;-83
2022/11/27 02:03:14;;;;;;;7.10;5.10;;;26.00;99.90;;;;;;1853768;75;21154;-82
2022/11/27 02:05:46;;;;;;;5.28;3.62;;;26.10;99.90;;;;;;1847197;76;21164;-82
2022/11/27 02:08:17;;;;;;;5.40;3.60;;;26.10;99.90;;;;;;1850860;75;21178;-81
2022/11/27 02:10:55;;;;;;;6.25;3.58;;;26.20;99.90;;;;;;1837316;76;21208;-82
2022/11/27 02:13:40;;;;;;;4.92;3.40;;;26.20;99.90;;;;;;1855241;76;21821;-81
2022/11/27 02:16:26;;;;;;;6.03;3.25;;;26.20;99.90;;;;;;1845526;77;21154;-82
2022/11/27 02:19:19;;;;;;;4.45;2.85;;;26.30;99.90;;;;;;1839161;75;21174;-83
2022/11/27 02:22:04;;;;;;;8.03;3.50;;;26.30;99.90;;;;;;1849258;75;21139;-84
2022/11/27 02:24:44;;;;;;;6.42;3.15;;;26.50;99.90;;;;;;1856145;75;21694;-82
2022/11/27 02:30:37;;;;;;;8.28;3.08;;;26.70;99.50;;;;;;1821010;76;21102;-84
2022/11/27 02:33:10;;;;;;;6.25;3.40;;;26.80;99.50;;;;;;1814684;77;21162;-83
2022/11/27 02:35:46;;;;;;;4.47;3.30;;;26.80;99.40;;;;;;1803643;77;21218;-82
2022/11/27 02:38:22;;;;;;;5.78;3.00;;;26.90;99.10;;;;;;1804460;77;21244;-81
2022/11/27 02:41:11;;;;;;;3.37;2.30;;;27.00;99.10;;;;;;1834943;76;21260;-81
2022/11/27 02:43:47;;;;;;;5.20;2.55;;;27.00;98.70;;;;;;1814997;77;21315;-84
2022/11/27 02:46:20;;;;;;;4.67;2.72;;;27.10;97.70;;;;;;1806358;77;21162;-82
2022/11/27 02:48:53;;;;;;;4.30;2.98;;;27.10;97.50;;;;;;1811858;77;21170;-82
2022/11/27 02:51:27;;;;;;;5.08;3.35;;;27.10;97.80;;;;;;1817951;77;21173;-83
2022/11/27 02:54:03;;;;;;;6.80;3.85;;;27.10;98.10;;;;;;1812216;77;21136;-84
2022/11/27 02:56:35;;;;;;;5.60;3.35;;;27.10;98.50;;;;;;1773609;79;21252;-84
2022/11/27 02:59:10;;;;;;;7.37;3.47;;;27.20;98.60;;;;;;1817031;78;21169;-84
2022/11/27 03:01:46;;;;;;;4.33;2.80;;;27.30;98.40;;;;;;1827866;77;21142;-84
2022/11/27 03:04:20;;;;;;;8.93;3.47;;;27.40;97.60;;;;;;1831861;77;21613;-84
2022/11/27 03:06:56;;;;;;;6.37;3.67;;;27.40;97.90;;;;;;1816550;77;21198;-84
2022/11/27 03:09:38;;;;;;;4.65;3.42;;;27.40;98.10;;;;;;1833514;76;21178;-84
2022/11/27 03:12:13;;;;;;;6.17;3.40;;;27.30;98.00;;;;;;1825860;77;21276;-83
2022/11/27 03:14:45;;;;;;;7.05;3.72;;;27.30;98.10;;;;;;1814637;77;21188;-83
2022/11/27 03:17:26;;;;;;;4.47;3.37;;;27.30;98.10;;;;;;1814529;77;21170;-84
2022/11/27 03:20:02;;;;;;;4.80;3.50;;;27.20;98.20;;;;;;1818088;77;21209;-84
2022/11/27 03:22:34;;;;;;;5.33;3.40;;;27.20;98.30;;;;;;1831863;77;21222;-84
2022/11/27 03:25:06;;;;;;;4.17;3.00;;;27.20;98.20;;;;;;1829153;77;21128;-83
2022/11/27 03:27:42;;;;;;;6.12;3.15;;;27.20;98.30;;;;;;1832125;76;21633;-83
2022/11/27 03:30:15;;;;;;;5.25;3.40;;;27.20;98.30;;;;;;1832248;77;21136;-83
2022/11/27 03:32:46;;;;;;;6.08;3.10;;;27.10;98.40;;;;;;1809679;77;21202;-84
2022/11/27 03:35:19;;;;;;;4.45;3.00;;;27.10;98.50;;;;;;1829591;77;21642;-83
2022/11/27 03:37:52;;;;;;;5.15;3.12;;;27.00;98.80;;;;;;1812728;77;21143;-84
2022/11/27 03:40:29;;;;;;;6.33;3.47;;;27.00;98.80;;;;;;1831959;77;21500;-85
2022/11/27 03:43:06;;;;;;;6.03;4.10;;;26.90;98.90;;;;;;1824486;77;21158;-81
2022/11/27 03:45:40;;;;;;;;;;;26.90;99.10;;;;;;1817381;77;21142;-84
2022/11/27 03:48:16;;;;;;;7.55;4.00;;;26.80;99.10;;;;;;1803941;77;20177;-84
2022/11/27 03:50:58;;;;;;;8.28;3.33;;;26.80;99.10;;;;;;1812636;78;21274;-84
2022/11/27 03:53:35;;;;;;;5.92;3.08;;;26.80;99.30;;;;;;1815343;77;21177;-83
2022/11/27 03:56:24;;;;;;;6.30;3.12;;;26.80;99.10;;;;;;1833322;77;21158;-83
2022/11/27 03:58:58;;;;;;;4.50;3.27;;;26.80;99.10;;;;;;1826138;77;21169;-83
2022/11/27 04:01:31;;;;;;;4.53;3.20;;;26.80;99.00;;;;;;1824657;77;21585;-83
2022/11/27 04:04:02;;;;;;;10.10;3.83;;;26.90;99.10;;;;;;1829750;78;21210;-84
2022/11/27 04:06:33;;;;;;;5.90;3.70;;;26.90;99.00;;;;;;1837482;77;21190;-83
2022/11/27 04:09:05;;;;;;;5.53;3.10;;;27.00;99.00;;;;;;1841111;78;21101;-82
2022/11/27 04:11:36;;;;;;;11.55;4.25;;;27.00;98.90;;;;;;1830523;77;21071;-82
2022/11/27 04:14:07;;;;;;;4.80;3.33;;;27.10;98.80;;;;;;1831579;78;21614;-83
2022/11/27 04:16:37;;;;;;;7.47;3.35;;;27.20;98.80;;;;;;1818269;77;21570;-84
2022/11/27 04:19:11;;;;;;;6.42;3.70;;;27.30;98.60;;;;;;1828939;77;21130;-83
2022/11/27 04:21:42;;;;;;;4.58;3.60;;;27.40;98.50;;;;;;1828302;77;21700;-83
2022/11/27 04:24:13;;;;;;;8.33;3.83;;;27.50;98.40;;;;;;1834152;78;21159;-83
2022/11/27 04:26:46;;;;;;;6.97;3.72;;;27.60;98.10;;;;;;1839996;77;21194;-83
2022/11/27 04:29:20;;;;;;;5.80;3.60;;;27.60;98.10;;;;;;1838419;77;21235;-84
2022/11/27 04:31:50;;;;;;;5.85;3.85;;;27.70;98.00;;;;;;1829809;77;21181;-83
2022/11/27 04:34:21;;;;;;;6.12;3.65;;;27.70;98.00;;;;;;1824909;77;21107;-84
2022/11/27 04:36:52;;;;;;;5.55;2.92;;;27.80;97.60;;;;;;1835430;77;21107;-80
2022/11/27 04:39:23;;;;;;;7.65;3.87;;;27.80;97.80;;;;;;1833792;77;21915;-83
2022/11/27 04:41:54;;;;;;;4.62;3.25;;;27.90;97.70;;;;;;1826402;77;21094;-84
2022/11/27 04:44:28;;;;;;;5.30;3.10;;;27.90;97.40;;;;;;1826165;77;21371;-84
2022/11/27 04:46:59;;;;;;;7.90;3.52;;;28.10;97.60;;;;;;1838792;77;21150;-84
2022/11/27 04:49:31;;;;;;;4.45;3.10;;;28.10;97.30;;;;;;1826710;77;21646;-85
2022/11/27 04:52:04;;;;;;;4.60;3.70;;;28.30;97.40;;;;;;1816013;77;21157;-84
2022/11/27 04:54:35;;;;;;;5.25;3.12;;;28.40;97.00;;;;;;1825275;77;21158;-83
2022/11/27 04:57:07;;;;;;;5.00;3.00;;;28.50;96.40;;;;;;1824860;77;21138;-82
2022/11/27 04:59:42;;;;;;;6.40;3.25;;;28.60;96.20;;;;;;1815548;78;22016;-85
2022/11/27 05:02:16;;;;;;;5.40;3.55;;;28.60;96.20;;;;;;1825919;77;21138;-84
2022/11/27 05:04:47;;;;;;;5.03;2.72;;;28.60;96.30;;;;;;1825291;77;21118;-83
2022/11/27 05:07:18;;;;;;;6.55;3.55;;;28.70;96.40;;;;;;1839201;77;21221;-84
2022/11/27 05:09:49;;;;;;;5.20;3.37;;;28.70;96.30;;;;;;1829407;77;21257;-83
2022/11/27 05:12:26;;;;;;;6.33;3.25;;;28.80;95.50;;;;;;1833755;77;21150;-83
2022/11/27 05:14:57;;;;;;;4.83;3.17;;;28.80;95.90;;;;;;1812583;78;21602;-83
2022/11/27 05:17:29;;;;;;;5.08;3.33;;;28.70;96.00;;;;;;1826735;77;22486;-83
2022/11/27 05:20:00;;;;;;;5.62;3.47;;;28.70;95.70;;;;;;1827566;77;21585;-83
2022/11/27 05:22:31;;;;;;;5.12;3.08;;;28.70;95.80;;;;;;1817906;78;21708;-83
2022/11/27 05:25:02;;;;;;;4.62;3.12;;;28.80;95.80;;;;;;1813417;78;21216;-83
2022/11/27 05:27:33;;;;;;;5.90;3.37;;;28.80;95.50;;;;;;1820247;77;21186;-83
2022/11/27 05:30:07;;;;;;;4.87;2.95;;;28.90;95.40;;;;;;1757379;80;21187;-81
2022/11/27 05:32:41;;;;;;;5.45;3.65;;;29.00;95.50;;;;;;1791210;78;21281;-84
2022/11/27 05:35:12;;;;;;;6.15;3.33;;;29.20;95.00;;;;;;1795977;77;21114;-81
2022/11/27 05:37:43;;;;;;;6.72;3.58;;;29.30;94.90;;;;;;1837458;77;21838;-82
2022/11/27 05:40:15;;;;;;;4.25;3.15;;;29.40;94.50;;;;;;1830399;77;21058;-84
2022/11/27 05:42:47;;;;;;;5.30;3.40;;;29.50;94.30;;;;;;1811181;77;21315;-85
2022/11/27 05:45:26;;;;;;;4.00;2.90;;;29.40;94.40;;;;;;1826536;77;21154;-82
2022/11/27 05:48:09;;;;;;;4.28;2.85;;;29.40;94.60;;;;;;1824984;77;21202;-83
2022/11/27 05:50:40;;;;;;;5.95;2.80;;;29.40;94.50;;;;;;1761561;80;21717;-81
2022/11/27 05:53:12;;;;;;;4.37;3.17;;;29.40;94.80;;;;;;1751475;81;21716;-83
2022/11/27 05:55:44;;;;;;;4.03;2.72;;;29.40;94.80;;;;;;1812055;78;21150;-83
2022/11/27 05:58:17;;;;;;;6.30;3.15;;;29.30;94.80;;;;;;1827819;77;21209;-83
2022/11/27 06:00:52;;;;;;;3.42;2.67;;;29.40;94.40;;;;;;1830002;77;21185;-83
2022/11/27 06:03:23;;;;;;;4.55;2.25;;;29.60;93.70;;;;;;1810182;78;21162;-83
2022/11/27 06:05:55;;;;;;;3.90;2.60;;;29.70;93.50;;;;;;1794905;78;21123;-82
2022/11/27 06:08:33;;;;;;;4.35;2.90;;;29.90;94.00;;;;;;1827428;78;21906;-85
2022/11/27 06:11:03;;;;;;;4.65;2.67;;;30.10;93.10;;;;;;1827828;77;21131;-83
2022/11/27 06:13:35;;;;;;;5.67;2.40;;;30.20;92.60;;;;;;1824619;77;21629;-82
2022/11/27 06:16:15;;;;;;;3.35;2.02;;;30.30;92.90;;;;;;1829703;77;21277;-81
2022/11/27 06:18:52;;;;;;;2.40;1.80;;;30.40;91.40;;;;;;1812902;78;21209;-81
2022/11/27 06:21:29;;;;;;;6.03;2.10;;;30.40;92.20;;;;;;1815176;77;21142;-80
2022/11/27 06:24:06;;;;;;;3.55;2.37;;;30.50;92.00;;;;;;1826680;78;22019;-81
2022/11/27 06:26:42;;;;;;;4.15;2.75;;;30.50;91.90;;;;;;1818803;77;21143;-81
2022/11/27 06:29:10;;;;;;;4.65;2.60;;;30.60;91.00;;;;;;1826448;77;21107;-82
2022/11/27 06:31:41;;;;;;;3.87;1.90;;;30.50;90.90;;;;;;1824985;78;21582;-84
2022/11/27 06:34:12;;;;;;;3.40;2.00;;;30.40;90.60;;;;;;1809145;78;21158;-83
2022/11/27 06:36:43;;;;;;;5.53;2.30;;;30.20;90.60;;;;;;1840969;77;21161;-82
2022/11/27 06:39:19;;;;;;;5.05;2.30;;;30.10;91.10;;;;;;1824407;77;21220;-84
2022/11/27 06:42:01;;;;;;;3.05;2.27;;;29.90;91.50;;;;;;1825835;78;21799;-83
2022/11/27 06:44:43;;;;;;;;;;;;;;;;;;;;;
2022/11/27 06:47:10;;;;;;;3.87;2.72;;;29.70;92.10;;;;;;1784356;78;21791;-84
2022/11/27 06:49:47;;;;;;;4.75;3.00;;;29.50;92.50;;;;;;1817394;77;21744;-84
2022/11/27 06:52:20;;;;;;;5.45;3.45;;;29.40;93.00;;;;;;1815156;78;21177;-84
2022/11/27 06:55:07;;;;;;;4.30;3.05;;;29.30;93.40;;;;;;1786256;78;21153;-83
2022/11/27 06:57:42;;;;;;;11.28;3.72;;;29.20;93.80;;;;;;1778313;80;21165;-83
2022/11/27 07:00:13;;;;;;;6.87;3.75;;;29.10;94.00;;;;;;1812040;77;21836;-85
2022/11/27 07:02:46;;;;;;;5.10;2.98;;;29.10;94.30;;;;;;1750099;81;21249;-85
2022/11/27 07:05:20;;;;;;;7.70;3.62;;;29.00;94.60;;;;;;1760058;80;21182;-85
2022/11/27 07:07:52;;;;;;;5.90;3.52;;;28.90;95.00;;;;;;1794526;78;21205;-83
2022/11/27 07:10:31;;;;;;;6.33;3.58;;;28.90;95.20;;;;;;1770547;79;21166;-84
2022/11/27 07:13:03;;;;;;;9.93;4.03;;;28.80;95.30;;;;;;1757918;80;21162;-83
2022/11/27 07:15:49;;;;;;;7.97;4.20;;;28.80;95.30;;;;;;1825428;77;21115;-83
2022/11/27 07:18:06;;;;;;;7.97;3.90;;;28.70;95.60;;;;;;1812105;78;21205;-83
2022/11/27 07:20:44;;;;;;;5.92;3.67;;;28.70;95.70;;;;;;1817097;77;21110;-83
2022/11/27 07:23:21;;;;;;;8.60;4.00;;;28.70;95.90;;;;;;1802940;78;21242;-81
2022/11/27 07:25:55;;;;;;;7.33;3.60;;;28.70;95.80;;;;;;1838372;76;21142;-82
2022/11/27 07:28:28;;;;;;;6.03;3.47;;;28.60;95.60;;;;;;1817340;77;21165;-83
2022/11/27 07:31:01;;;;;;;7.62;4.03;;;28.70;95.60;;;;;;1801129;77;21181;-83
2022/11/27 07:33:33;;;;;;;5.50;4.28;;;28.70;95.80;;;;;;1813353;77;21158;-83
2022/11/27 07:36:16;;;;;;;8.60;4.35;;;28.70;95.80;;;;;;1826221;78;21815;-82
2022/11/27 07:38:49;;;;;;;5.87;4.65;;;28.70;95.80;;;;;;1827951;78;21110;-81
2022/11/27 07:41:24;;;;;;;5.92;4.28;;;28.80;95.60;;;;;;1833253;76;21173;-83
2022/11/27 07:44:02;;;;;;;6.12;3.77;;;28.80;95.50;;;;;;1815141;77;21090;-84
2022/11/27 07:46:37;;;;;;;7.17;3.08;;;28.90;95.40;;;;;;1834565;77;21605;-86
2022/11/27 07:49:12;;;;;;;7.55;3.47;;;29.00;95.20;;;;;;1794756;78;21165;-84
2022/11/27 07:51:43;;;;;;;6.72;3.87;;;29.10;94.80;;;;;;1823351;78;21613;-83
2022/11/27 07:54:14;;;;;;;5.42;2.62;;;29.20;94.40;;;;;;1812366;78;21142;-83
2022/11/27 07:56:45;;;;;;;5.20;3.25;;;29.20;94.50;;;;;;1826419;78;21164;-83
2022/11/27 07:59:19;;;;;;;7.67;3.42;;;29.30;94.90;;;;;;1838532;77;21137;-83
2022/11/27 08:01:50;;;;;;;7.03;3.20;;;29.30;94.30;;;;;;1768140;80;21171;-85
2022/11/27 08:04:21;;;;;;;6.75;3.17;;;29.40;94.40;;;;;;1825897;77;21092;-82
2022/11/27 08:06:54;;;;;;;3.98;2.72;;;29.40;94.10;;;;;;1823281;77;21110;-83
2022/11/27 08:09:25;;;;;;;3.87;2.90;;;29.40;93.90;;;;;;1811303;78;21190;-82
2022/11/27 08:11:56;;;;;;;4.90;3.15;;;29.50;94.10;;;;;;1821105;77;21179;-81
2022/11/27 08:14:29;;;;;;;5.83;3.33;;;29.50;94.00;;;;;;1812353;78;21172;-82
2022/11/27 08:17:01;;;;;;;3.20;2.60;;;29.40;93.90;;;;;;1792382;79;21166;-84
2022/11/27 08:19:44;;;;;;;3.40;2.50;;;29.40;94.00;;;;;;1809714;77;21225;-82
2022/11/27 08:22:14;;;;;;;;;;;29.50;94.00;;;;;;1836586;77;21110;-82
2022/11/27 08:24:53;;;;;;;4.95;2.72;;;29.40;94.10;;;;;;1855724;77;20332;-82
2022/11/27 08:27:26;;;;;;;4.25;2.85;;;29.40;93.90;;;;;;1840493;76;21881;-85
2022/11/27 08:29:57;;;;;;;4.35;2.67;;;29.40;94.00;;;;;;1837199;77;21091;-84
2022/11/27 08:32:35;;;;;;;4.92;2.90;;;29.40;93.80;;;;;;1831167;77;21770;-84
2022/11/27 08:35:21;;;;;;;3.75;2.77;;;29.30;93.90;;;;;;1816097;78;21729;-84
2022/11/27 08:37:55;;;;;;;6.92;3.12;;;29.30;93.90;;;;;;1809119;77;21146;-83
2022/11/27 08:40:23;;;;;;;4.97;3.10;;;29.20;94.10;;;;;;1822122;77;21728;-83
2022/11/27 08:42:54;;;;;;;6.50;3.30;;;29.20;94.20;;;;;;1823474;77;21122;-84
2022/11/27 08:45:35;;;;;;;8.20;3.40;;;29.20;94.40;;;;;;1829593;76;21259;-82
2022/11/27 08:48:05;;;;;;;6.35;3.58;;;29.10;94.40;;;;;;1831704;77;21177;-84
2022/11/27 08:50:38;;;;;;;4.75;3.17;;;29.10;94.50;;;;;;1814129;78;21178;-84
2022/11/27 08:53:28;;;;;;;5.45;3.65;;;29.10;95.00;;;;;;1820580;77;21298;-83
2022/11/27 08:55:59;;;;;;;4.60;3.02;;;29.10;94.70;;;;;;1812003;77;21190;-84
2022/11/27 08:58:40;;;;;;;5.22;3.15;;;29.00;94.70;;;;;;1819679;77;21314;-84
2022/11/27 09:01:34;;;;;;;4.87;2.92;;;29.00;94.70;;;;;;1830968;76;21189;-83
2022/11/27 09:04:07;;;;;;;8.70;3.08;;;29.00;94.70;;;;;;1814132;77;21152;-84
2022/11/27 09:06:41;;;;;;;3.75;2.92;;;29.00;94.50;;;;;;1820474;77;21177;-83
2022/11/27 09:09:14;;;;;;;3.10;2.27;;;29.00;93.60;;;;;;1832215;77;21111;-83
2022/11/27 09:11:50;;;;;;;4.12;2.58;;;29.00;93.70;;;;;;1824092;76;21156;-84
2022/11/27 09:14:27;;;;;;;2.75;2.17;;;29.00;93.10;;;;;;1820931;77;21732;-82
2022/11/27 09:16:58;;;;;;;;;;;28.90;93.00;;;;;;1835316;76;21138;-85
2022/11/27 09:19:32;;;;;;;5.17;2.20;;;28.90;93.10;;;;;;1817067;77;20671;-84
2022/11/27 09:22:06;;;;;;;3.72;2.08;;;28.90;92.90;;;;;;1825051;77;21158;-84
2022/11/27 09:24:37;;;;;;;4.95;2.40;;;29.00;92.80;;;;;;1808662;78;21215;-86
2022/11/27 09:27:14;;;;;;;6.12;2.83;;;28.90;92.70;;;;;;1826747;77;21142;-83
2022/11/27 09:29:45;;;;;;;5.87;2.87;;;29.00;93.30;;;;;;1792111;78;21220;-85
2022/11/27 09:32:17;;;;;;;3.83;2.67;;;28.90;93.00;;;;;;1824722;77;21268;-84
2022/11/27 09:34:52;;;;;;;5.95;2.77;;;28.90;93.30;;;;;;1823862;77;21311;-84
2022/11/27 09:37:28;;;;;;;5.83;2.83;;;28.90;93.60;;;;;;1812227;77;21083;-84
2022/11/27 09:40:03;;;;;;;5.55;2.90;;;28.90;93.60;;;;;;1810598;77;21179;-84
2022/11/27 09:42:39;;;;;;;5.67;2.77;;;28.90;93.50;;;;;;1814615;77;21231;-84
2022/11/27 09:45:12;;;;;;;4.95;2.87;;;28.80;93.40;;;;;;1807791;77;21182;-84
2022/11/27 09:48:05;;;;;;;3.65;2.65;;;28.80;93.30;;;;;;1820519;77;21325;-83
2022/11/27 09:50:40;;;;;;;4.55;2.65;;;28.80;93.10;;;;;;1809710;78;21247;-83
2022/11/27 09:53:21;;;;;;;5.87;2.80;;;28.80;93.10;;;;;;1838913;77;21129;-84
2022/11/27 09:55:55;;;;;;;4.60;2.52;;;28.80;92.80;;;;;;1800044;77;21146;-85
2022/11/27 09:58:39;;;;;;;4.50;2.70;;;28.80;92.90;;;;;;1789077;78;21228;-83
2022/11/27 10:01:13;;;;;;;4.03;2.42;;;28.80;92.90;;;;;;1787933;78;21246;-84
2022/11/27 10:03:51;;;;;;;5.12;2.77;;;28.80;92.90;;;;;;1826796;77;21170;-83
2022/11/27 10:06:44;;;;;;;4.42;2.42;;;28.80;93.00;;;;;;1832773;77;21632;-85
2022/11/27 10:09:32;;;;;;;8.10;2.85;;;28.70;92.90;;;;;;1811866;77;21248;-83
2022/11/27 10:12:33;;;;;;;6.17;2.15;;;28.80;92.70;;;;;;1805547;78;21178;-83
2022/11/27 10:15:23;;;;;;;5.95;2.77;;;28.80;92.40;;;;;;1781968;79;21308;-83
2022/11/27 10:18:02;;;;;;;6.58;2.80;;;28.70;92.20;;;;;;1827709;77;21137;-85
2022/11/27 10:20:43;;;;;;;5.72;3.17;;;28.70;92.10;;;;;;1835155;77;21912;-83
2022/11/27 10:23:35;;;;;;;7.15;3.70;;;28.70;91.80;;;;;;1816151;77;21137;-85
2022/11/27 10:26:06;;;;;;;6.28;3.25;;;28.70;91.90;;;;;;1833343;77;21157;-83
2022/11/27 10:28:49;;;;;;;7.97;3.42;;;28.70;91.90;;;;;;1807620;77;21158;-84
2022/11/27 10:31:38;;;;;;;5.03;3.27;;;28.70;92.00;;;;;;1828249;77;21153;-84
2022/11/27 10:34:17;;;;;;;;;;;28.60;92.10;;;;;;1798325;79;21236;-84
2022/11/27 10:36:49;;;;;;;6.22;3.42;;;28.60;92.30;;;;;;1816508;77;20132;-84
2022/11/27 10:39:36;;;;;;;6.35;3.37;;;28.60;92.30;;;;;;1826201;77;21184;-84
2022/11/27 10:42:16;;;;;;;8.25;3.27;;;28.50;92.30;;;;;;1828542;77;21067;-84
2022/11/27 10:44:56;;;;;;;16.55;4.03;;;28.50;92.50;;;;;;1823916;77;21130;-84
2022/11/27 10:47:37;;;;;;;7.90;3.77;;;28.50;92.60;;;;;;1794333;78;21187;-84
2022/11/27 10:50:27;;;;;;;8.13;3.58;;;28.50;92.70;;;;;;1826813;77;21282;-83
2022/11/27 10:53:17;;;;;;;5.83;3.37;;;28.50;92.80;;;;;;1800217;77;21530;-83
2022/11/27 10:56:09;;;;;;;9.15;4.72;;;28.40;92.90;;;;;;1791441;77;21767;-84
2022/11/27 10:59:06;;;;;;;8.55;4.28;;;28.40;93.00;;;;;;1812873;77;21139;-85
2022/11/27 11:01:52;;;;;;;11.97;4.30;;;28.40;93.20;;;;;;1818299;76;21191;-84
2022/11/27 11:04:28;;;;;;;9.15;4.40;;;28.40;93.60;;;;;;1815613;77;21109;-85
2022/11/27 11:07:17;;;;;;;8.28;4.33;;;28.30;93.90;;;;;;1825717;77;21264;-84
2022/11/27 11:09:53;;;;;;;7.62;3.87;;;28.30;94.20;;;;;;1789964;78;21672;-85
2022/11/27 11:12:27;;;;;;;11.78;4.05;;;28.20;94.40;;;;;;1821467;77;21583;-85
2022/11/27 11:15:01;;;;;;;5.78;3.45;;;28.20;94.60;;;;;;1760235;79;21676;-83
2022/11/27 11:17:33;;;;;;;5.47;3.50;;;28.20;94.70;;;;;;1822027;77;21228;-84
2022/11/27 11:23:00;;;;;;;8.35;4.55;;;28.10;95.00;;;;;;1800093;78;21708;-85
2022/11/27 11:25:41;;;;;;;8.35;4.85;;;28.10;95.00;;;;;;1821189;77;21242;-85
2022/11/27 11:28:18;;;;;;;9.40;4.30;;;28.10;95.20;;;;;;1837049;76;21183;-84
2022/11/27 11:31:06;;;;;;;8.78;4.75;;;28.00;95.20;;;;;;1830709;77;21216;-83
2022/11/27 11:33:49;;;;;;;7.72;4.45;;;28.00;95.40;;;;;;1812494;78;21190;-85
2022/11/27 11:36:22;;;;;;;10.38;4.65;;;28.00;95.60;;;;;;1825010;77;21170;-84
2022/11/27 11:38:54;;;;;;;8.40;5.33;;;27.90;95.80;;;;;;1827905;77;21868;-84
2022/11/27 11:41:26;;;;;;;15.95;5.80;;;27.90;96.00;;;;;;1826613;77;21181;-84
2022/11/27 11:44:02;;;;;;;8.70;5.50;;;27.90;96.10;;;;;;1809716;77;21151;-84
2022/11/27 11:46:37;;;;;;;10.28;5.80;;;27.90;96.20;;;;;;1845881;77;21146;-83
2022/11/27 11:49:21;;;;;;;11.57;6.67;;;27.90;96.20;;;;;;1835360;77;21247;-83
2022/11/27 11:51:59;;;;;;;9.73;4.97;;;27.80;96.30;;;;;;1806395;77;21186;-83
2022/11/27 11:54:40;;;;;;;8.10;5.12;;;27.80;96.40;;;;;;1825885;77;21180;-84
2022/11/27 11:57:29;;;;;;;11.73;5.85;;;27.80;96.50;;;;;;1837172;77;21240;-83
2022/11/27 12:00:10;;;;;;;15.58;5.33;;;27.80;96.60;;;;;;1793865;77;21743;-86
2022/11/27 12:03:02;;;;;;;7.78;5.33;;;27.80;96.60;;;;;;1829070;77;21205;-85
2022/11/27 12:06:01;;;;;;;11.25;5.95;;;27.80;96.70;;;;;;1804571;77;21999;-82
2022/11/27 12:08:51;;;;;;;17.82;6.75;;;27.80;96.70;;;;;;1813574;78;21237;-84
2022/11/27 12:11:55;;;;;;;14.65;6.80;;;27.80;96.70;;;;;;1783353;77;21126;-82
2022/11/27 12:14:57;;;;;;;16.25;7.20;;;27.70;96.90;;;;;;1809990;77;21578;-81
2022/11/27 12:17:39;;;;;;;11.05;6.35;;;27.70;97.00;;;;;;1821285;77;21586;-82
2022/11/27 12:20:31;;;;;;;17.50;7.57;;;27.70;97.10;;;;;;1801452;77;21170;-83
2022/11/27 12:23:22;;;;;;;15.85;6.95;;;27.70;97.30;;;;;;1813649;77;21207;-83
2022/11/27 12:26:06;;;;;;;15.03;7.53;;;27.70;97.40;;;;;;1760311;80;21188;-83
2022/11/27 12:28:48;;;;;;;19.85;7.12;;;27.70;97.50;;;;;;1801092;77;21562;-84
2022/11/27 12:31:43;;;;;;;21.42;7.90;;;27.60;97.50;;;;;;1831970;77;21153;-83
2022/11/27 12:34:28;;;;;;;18.32;7.25;;;27.60;97.60;;;;;;1822666;77;21911;-83
2022/11/27 12:37:18;;;;;;;15.55;7.92;;;27.60;97.30;;;;;;1818694;77;21150;-84
2022/11/27 12:40:03;;;;;;;18.73;8.48;;;27.60;97.80;;;;;;1830433;77;21207;-83
2022/11/27 12:42:40;;;;;;;15.63;8.07;;;27.60;97.80;;;;;;1828098;76;21790;-83
2022/11/27 12:45:27;;;;;;;17.15;7.83;;;27.60;97.80;;;;;;1829119;77;21083;-84
2022/11/27 12:48:00;;;;;;;14.55;8.03;;;27.50;97.90;;;;;;1826123;77;21146;-82
2022/11/27 12:50:45;;;;;;;13.15;7.80;;;27.50;98.00;;;;;;1824013;77;21182;-84
2022/11/27 12:53:25;;;;;;;20.60;8.38;;;27.50;98.00;;;;;;1806856;77;21569;-84
2022/11/27 12:56:28;;;;;;;15.90;8.03;;;27.50;98.10;;;;;;1824620;77;21169;-83
2022/11/27 12:58:49;;;;;;;17.95;8.55;;;27.50;98.20;;;;;;1814678;78;21184;-83
2022/11/27 13:01:25;;;;;;;23.55;8.75;;;27.50;98.20;;;;;;1791924;78;21204;-83
2022/11/27 13:04:26;;;;;;;15.03;7.37;;;27.50;98.20;;;;;;1816835;78;21065;-83
2022/11/27 13:07:13;;;;;;;16.05;8.15;;;27.50;98.30;;;;;;1806092;79;21196;-83
2022/11/27 13:09:52;;;;;;;16.77;8.80;;;27.50;98.30;;;;;;1798727;78;21181;-83
2022/11/27 13:12:36;;;;;;;22.27;8.90;;;27.50;98.30;;;;;;1765968;80;22445;-82
2022/11/27 13:15:15;;;;;;;16.50;9.40;;;27.50;98.40;;;;;;1814313;77;21111;-83
2022/11/27 13:17:56;;;;;;;21.05;9.25;;;27.50;98.40;;;;;;1799512;77;21133;-84
2022/11/27 13:20:31;;;;;;;16.73;8.63;;;27.40;98.50;;;;;;1803235;76;21140;-84
2022/11/27 13:23:03;;;;;;;23.25;9.38;;;27.40;98.70;;;;;;1804741;78;22002;-83
2022/11/27 13:25:33;;;;;;;23.30;8.88;;;27.30;98.80;;;;;;1800010;77;21191;-83
2022/11/27 13:28:06;;;;;;;24.10;9.35;;;27.30;98.70;;;;;;1827264;77;21217;-83
2022/11/27 13:30:38;;;;;;;22.93;9.93;;;27.30;98.90;;;;;;1827704;77;21236;-83
2022/11/27 13:33:12;;;;;;;21.87;10.38;;;27.30;98.90;;;;;;1823226;77;21231;-83
2022/11/27 13:35:44;;;;;;;23.10;11.50;;;27.30;98.90;;;;;;1820151;77;21212;-83
2022/11/27 13:38:31;;;;;;;26.25;10.48;;;27.30;99.00;;;;;;1820429;76;21566;-82
2022/11/27 13:41:05;;;;;;;27.67;10.80;;;27.30;99.10;;;;;;1809125;77;21143;-83